Time;durP1;ratioP1;P1;durP2;ratioP2;P2;SDS_P1;SDS_P2;PMS_P1;PMS_P2;Temp;Humidity;BMP_temperature;BMP_pressure;BME280_temperature;BME280_humidity;BME280_pressure;Samples;Min_cycle;Max_cycle;Signal;HPM_P1;HPM_P2
2022/07/06 00:02:17;;;;;;;5.83;3.00;;;;;;;11.50;78.44;102416.94;5116473;28;20379;-84
2022/07/06 00:04:42;;;;;;;9.40;3.50;;;;;;;11.46;77.90;102414.75;5116404;28;20110;-84
2022/07/06 00:07:08;;;;;;;5.93;3.33;;;;;;;11.41;78.25;102409.84;5082586;28;20494;-84
2022/07/06 00:09:33;;;;;;;11.37;3.50;;;;;;;11.37;78.71;102408.56;5116269;28;20046;-84
2022/07/06 00:11:59;;;;;;;7.07;2.83;;;;;;;11.32;78.91;102417.22;5116242;28;20034;-85
2022/07/06 00:14:24;;;;;;;6.78;3.17;;;;;;;11.31;79.90;102411.97;5134434;28;20027;-84
2022/07/06 00:16:50;;;;;;;5.50;2.77;;;;;;;11.29;79.78;102414.03;5118387;27;20054;-84
2022/07/06 00:19:15;;;;;;;5.67;2.97;;;;;;;11.23;79.98;102407.44;5120049;27;20031;-84
2022/07/06 00:21:41;;;;;;;5.90;2.80;;;;;;;11.21;80.47;102415.78;5120375;27;20386;-84
2022/07/06 00:24:07;;;;;;;5.53;3.20;;;;;;;11.25;80.86;102424.44;5086643;27;20049;-84
2022/07/06 00:26:33;;;;;;;6.60;2.97;;;;;;;11.21;80.08;102417.66;5103782;27;20092;-83
2022/07/06 00:28:58;;;;;;;7.37;2.93;;;;;;;11.20;80.99;102422.25;5103318;27;20424;-84
2022/07/06 00:31:24;;;;;;;6.80;3.00;;;;;;;11.17;81.38;102421.75;5103139;27;20031;-84
2022/07/06 00:33:49;;;;;;;5.63;3.00;;;;;;;11.18;81.44;102420.75;5102914;27;20037;-84
2022/07/06 00:36:14;;;;;;;7.80;3.67;;;;;;;11.18;81.71;102415.31;5120286;27;20096;-84
2022/07/06 00:38:40;;;;;;;9.77;3.47;;;;;;;11.14;81.81;102416.69;5120164;27;20024;-84
2022/07/06 00:41:05;;;;;;;4.80;3.30;;;;;;;11.13;82.06;102417.72;5120014;27;20032;-85
2022/07/06 00:43:56;;;;;;;8.33;3.50;;;;;;;11.12;81.90;102429.63;5103429;27;20084;-84
2022/07/06 00:46:31;;;;;;;8.75;3.78;;;;;;;11.05;82.28;102418.63;5138791;27;20062;-84
2022/07/06 00:48:57;;;;;;;6.68;3.50;;;;;;;11.03;82.51;102423.41;5119435;27;20038;-85
2022/07/06 00:51:28;;;;;;;7.87;3.30;;;;;;;10.98;82.66;102417.66;5119876;27;20031;-85
2022/07/06 00:53:55;;;;;;;5.45;3.47;;;;;;;10.93;82.71;102423.63;5119953;27;20110;-84
2022/07/06 00:56:20;;;;;;;5.40;3.17;;;;;;;10.92;82.87;102421.09;5120084;27;20031;-84
2022/07/06 00:58:47;;;;;;;6.17;3.00;;;;;;;10.87;82.30;102427.91;5103030;27;20035;-84
2022/07/06 01:01:12;;;;;;;7.68;3.47;;;;;;;10.82;82.74;102416.75;5119646;27;20122;-84
2022/07/06 01:03:38;;;;;;;11.03;3.50;;;;;;;10.77;83.24;102413.69;5119645;27;20135;-85
2022/07/06 01:06:03;;;;;;;7.03;3.25;;;;;;;10.79;82.67;102424.38;5102374;27;20399;-85
2022/07/06 01:08:29;;;;;;;8.80;3.77;;;;;;;10.70;84.25;102421.72;5119749;27;20031;-84
2022/07/06 01:10:55;;;;;;;7.40;3.55;;;;;;;10.66;83.64;102423.09;5119475;27;20034;-84
2022/07/06 01:13:20;;;;;;;5.87;3.73;;;;;;;10.57;83.91;102415.16;5119492;27;20106;-84
2022/07/06 01:15:46;;;;;;;8.23;3.70;;;;;;;10.52;84.14;102421.13;5119572;27;20030;-84
2022/07/06 01:18:12;;;;;;;6.53;3.92;;;;;;;10.50;84.87;102423.19;5119426;27;20490;-84
2022/07/06 01:20:37;;;;;;;9.33;4.00;;;;;;;10.50;85.30;102415.88;5101728;27;20455;-84
2022/07/06 01:23:02;;;;;;;7.00;3.90;;;;;;;10.47;84.62;102418.09;5119263;27;20130;-84
2022/07/06 01:25:28;;;;;;;6.77;4.17;;;;;;;10.40;84.63;102420.66;5086307;27;20482;-84
2022/07/06 01:27:54;;;;;;;10.37;4.03;;;;;;;10.38;85.13;102411.88;5118616;27;20027;-85
2022/07/06 01:30:20;;;;;;;6.47;4.00;;;;;;;10.37;85.25;102422.91;5137603;27;20104;-84
2022/07/06 01:32:46;;;;;;;5.97;4.07;;;;;;;10.33;85.20;102414.22;5119325;27;20028;-84
2022/07/06 01:35:13;;;;;;;6.22;4.00;;;;;;;10.31;85.24;102419.81;5102086;27;20038;-84
2022/07/06 01:37:39;;;;;;;8.38;4.22;;;;;;;10.30;85.94;102420.81;5102429;27;20095;-84
2022/07/06 01:40:07;;;;;;;10.75;4.50;;;;;;;10.28;85.89;102419.34;5118876;27;20463;-84
2022/07/06 01:42:33;;;;;;;6.30;4.03;;;;;;;10.26;86.09;102422.22;5118738;27;20030;-84
2022/07/06 01:44:58;;;;;;;7.82;4.75;;;;;;;10.27;87.20;102423.06;5101882;27;20543;-84
2022/07/06 01:47:24;;;;;;;7.93;4.00;;;;;;;10.23;86.77;102422.56;5118636;27;20035;-84
2022/07/06 01:49:50;;;;;;;11.95;4.50;;;;;;;10.25;87.73;102425.94;5117832;27;20383;-84
2022/07/06 01:52:16;;;;;;;9.33;4.67;;;;;;;10.21;86.93;102419.19;5137164;27;20030;-84
2022/07/06 01:54:41;;;;;;;7.45;4.70;;;;;;;10.17;87.84;102415.09;5118614;27;20482;-84
2022/07/06 01:57:07;;;;;;;7.90;4.70;;;;;;;10.13;87.46;102416.50;5118257;27;20023;-84
2022/07/06 01:59:32;;;;;;;6.80;4.37;;;;;;;10.13;87.70;102416.50;5118981;27;20093;-84
2022/07/06 02:01:58;;;;;;;10.03;4.83;;;;;;;10.08;87.65;102416.16;5084924;27;20105;-84
2022/07/06 02:04:23;;;;;;;8.07;4.80;;;;;;;10.06;88.09;102421.75;5118731;27;20031;-84
2022/07/06 02:06:49;;;;;;;7.88;4.88;;;;;;;10.01;88.72;102414.16;5101201;27;20066;-84
2022/07/06 02:09:15;;;;;;;6.63;4.80;;;;;;;10.02;88.27;102414.97;5136532;27;20043;-84
2022/07/06 02:11:41;;;;;;;10.45;5.05;;;;;;;10.00;88.93;102427.88;5101465;27;20031;-84
2022/07/06 02:14:06;;;;;;;8.10;5.10;;;;;;;10.02;89.12;102431.25;5101333;27;20027;-84
2022/07/06 02:16:32;;;;;;;12.57;4.90;;;;;;;9.98;88.91;102430.78;5118415;27;20043;-84
2022/07/06 02:18:57;;;;;;;9.65;5.32;;;;;;;9.96;89.82;102419.22;5083744;27;20084;-84
2022/07/06 02:21:22;;;;;;;10.47;5.17;;;;;;;9.93;89.48;102421.47;5117861;27;20028;-84
2022/07/06 02:23:48;;;;;;;9.60;5.47;;;;;;;9.91;90.04;102421.63;5084598;27;20055;-83
2022/07/06 02:26:13;;;;;;;8.47;5.53;;;;;;;9.88;90.45;102418.44;5118121;27;20038;-84
2022/07/06 02:28:39;;;;;;;9.63;5.10;;;;;;;9.84;90.47;102420.63;5118090;27;20031;-84
2022/07/06 02:31:04;;;;;;;9.07;5.63;;;;;;;9.82;91.06;102415.38;5101098;27;20466;-84
2022/07/06 02:33:30;;;;;;;10.80;6.07;;;;;;;9.82;91.36;102419.97;5084518;27;20031;-84
2022/07/06 02:35:55;;;;;;;13.18;5.95;;;;;;;9.84;91.11;102420.63;5100765;27;20035;-84
2022/07/06 02:38:21;;;;;;;9.33;5.40;;;;;;;9.84;90.93;102416.03;5100900;27;20385;-84
2022/07/06 02:40:47;;;;;;;10.43;6.00;;;;;;;9.83;91.72;102414.38;5099839;27;20031;-84
2022/07/06 02:43:13;;;;;;;10.10;5.93;;;;;;;9.87;91.41;102412.16;5084150;27;20027;-84
2022/07/06 02:45:39;;;;;;;12.73;6.88;;;;;;;9.89;91.80;102415.53;5117312;27;20023;-84
2022/07/06 02:48:05;;;;;;;9.83;5.83;;;;;;;9.91;91.07;102415.38;5117962;27;20030;-84
2022/07/06 02:50:30;;;;;;;9.17;5.47;;;;;;;9.88;91.51;102410.28;5099936;27;20442;-84
2022/07/06 02:52:56;;;;;;;8.07;5.85;;;;;;;9.90;91.62;102411.78;5117502;27;20035;-84
2022/07/06 02:55:21;;;;;;;10.53;5.50;;;;;;;9.95;92.12;102416.69;5117470;27;20027;-84
2022/07/06 02:57:47;;;;;;;11.27;5.40;;;;;;;9.96;92.29;102429.25;5100443;27;20059;-83
2022/07/06 03:00:13;;;;;;;10.27;5.40;;;;;;;9.95;91.82;102427.53;5117303;27;20621;-84
2022/07/06 03:02:38;;;;;;;8.30;5.47;;;;;;;9.94;92.14;102431.28;5117555;27;20080;-84
2022/07/06 03:05:04;;;;;;;9.18;5.60;;;;;;;9.91;92.26;102434.34;5135747;27;20082;-84
2022/07/06 03:07:30;;;;;;;9.70;6.07;;;;;;;9.92;92.40;102426.03;5116821;27;20047;-84
2022/07/06 03:09:55;;;;;;;12.17;5.63;;;;;;;9.92;91.94;102409.78;5100328;27;20475;-84
2022/07/06 03:12:20;;;;;;;7.30;5.30;;;;;;;9.96;92.29;102427.38;5117169;27;20536;-84
2022/07/06 03:14:46;;;;;;;9.73;5.00;;;;;;;9.98;91.87;102429.91;5100213;27;20413;-84
2022/07/06 03:17:11;;;;;;;7.57;5.25;;;;;;;9.93;91.41;102422.28;5100205;27;20027;-84
2022/07/06 03:19:37;;;;;;;9.90;5.47;;;;;;;9.91;91.61;102431.63;5116608;27;20463;-85
2022/07/06 03:22:03;;;;;;;9.70;5.60;;;;;;;9.91;91.46;102442.47;5116968;27;20481;-84
2022/07/06 03:24:28;;;;;;;9.15;5.57;;;;;;;9.90;91.75;102433.47;5116916;27;20083;-84
2022/07/06 03:26:54;;;;;;;11.33;6.13;;;;;;;9.89;91.61;102439.09;5099634;27;20031;-84
2022/07/06 03:29:20;;;;;;;9.60;5.30;;;;;;;9.88;91.64;102440.13;5117296;27;20348;-84
2022/07/06 03:31:46;;;;;;;6.88;5.50;;;;;;;9.86;92.07;102442.97;5099841;27;20028;-84
2022/07/06 03:34:11;;;;;;;10.05;5.70;;;;;;;9.83;92.31;102433.34;5135449;27;20528;-84
2022/07/06 03:36:37;;;;;;;9.77;5.50;;;;;;;9.87;92.16;102431.13;5116987;27;20050;-84
2022/07/06 03:39:03;;;;;;;9.38;5.82;;;;;;;9.86;91.87;102434.84;5135129;27;20450;-84
2022/07/06 03:41:29;;;;;;;7.72;5.53;;;;;;;9.86;91.86;102423.16;5117071;27;20027;-84
2022/07/06 03:43:54;;;;;;;9.43;5.63;;;;;;;9.87;92.25;102433.00;5117187;27;20126;-84
2022/07/06 03:46:19;;;;;;;8.83;5.27;;;;;;;9.85;92.25;102430.47;5116616;27;20026;-84
2022/07/06 03:48:45;;;;;;;6.23;4.93;;;;;;;9.87;92.08;102433.84;5099459;27;20030;-84
2022/07/06 03:51:11;;;;;;;8.50;5.30;;;;;;;9.90;92.02;102443.50;5098374;27;20031;-84
2022/07/06 03:53:38;;;;;;;11.17;5.73;;;;;;;9.89;91.89;102439.94;5116266;27;20458;-84
2022/07/06 03:58:48;;;;;;;9.93;5.47;;;;;;;9.92;92.33;102441.44;5135068;27;20128;-84
2022/07/06 04:01:13;;;;;;;8.23;5.10;;;;;;;9.93;92.22;102433.13;5116092;27;20031;-84
2022/07/06 04:03:40;;;;;;;7.15;5.30;;;;;;;9.92;92.10;102426.03;5116437;28;20073;-84
2022/07/06 04:06:06;;;;;;;6.77;5.13;;;;;;;9.96;92.09;102432.78;5115853;28;20436;-84
2022/07/06 04:08:32;;;;;;;9.03;5.80;;;;;;;9.96;91.91;102421.94;5116390;28;20327;-84
2022/07/06 04:10:57;;;;;;;10.93;4.97;;;;;;;9.98;92.27;102432.63;5115707;28;20023;-84
2022/07/06 04:13:25;;;;;;;10.07;5.40;;;;;;;10.02;92.02;102431.25;5099256;28;20118;-84
2022/07/06 04:15:51;;;;;;;10.88;5.00;;;;;;;10.02;91.84;102431.25;5082992;28;20035;-84
2022/07/06 04:18:16;;;;;;;9.15;5.43;;;;;;;10.05;91.71;102421.94;5114769;28;20031;-84
2022/07/06 04:20:42;;;;;;;8.10;4.83;;;;;;;10.07;91.78;102422.59;5115298;28;20378;-84
2022/07/06 04:23:07;;;;;;;8.07;5.23;;;;;;;10.11;91.54;102415.81;5115979;28;20070;-84
2022/07/06 04:25:34;;;;;;;9.13;5.10;;;;;;;10.13;91.64;102413.78;5115511;28;20027;-84
2022/07/06 04:27:59;;;;;;;7.47;5.15;;;;;;;10.17;91.10;102409.69;5099222;28;20035;-84
2022/07/06 04:30:24;;;;;;;9.13;5.50;;;;;;;10.21;91.25;102418.34;5116065;28;20523;-84
2022/07/06 04:32:50;;;;;;;11.57;4.80;;;;;;;10.27;91.08;102418.47;5116084;28;20527;-84
2022/07/06 04:35:15;;;;;;;10.17;5.43;;;;;;;10.34;90.86;102411.34;5115953;28;20061;-84
2022/07/06 04:37:41;;;;;;;9.40;5.60;;;;;;;10.42;90.91;102409.63;5115967;28;20027;-84
2022/07/06 04:40:07;;;;;;;9.07;5.03;;;;;;;10.50;90.93;102418.59;5115542;28;20526;-84
2022/07/06 04:42:32;;;;;;;7.20;5.00;;;;;;;10.56;90.78;102416.22;5098551;28;20076;-84
2022/07/06 04:45:00;;;;;;;7.90;4.93;;;;;;;10.60;90.27;102409.38;5116183;28;20068;-84
2022/07/06 04:47:26;;;;;;;8.10;4.85;;;;;;;10.69;90.15;102421.91;5116624;28;20023;-84
2022/07/06 04:49:51;;;;;;;10.33;5.03;;;;;;;10.77;89.51;102421.84;5115238;28;20400;-84
2022/07/06 04:52:17;;;;;;;8.10;4.72;;;;;;;10.82;89.48;102415.88;5134133;28;20027;-83
2022/07/06 04:54:42;;;;;;;11.40;4.90;;;;;;;10.90;89.22;102415.00;5115666;28;20050;-84
2022/07/06 04:57:08;;;;;;;9.00;5.07;;;;;;;10.97;88.94;102407.81;5115614;28;20041;-84
2022/07/06 04:59:33;;;;;;;10.10;4.97;;;;;;;11.06;89.01;102418.44;5098510;28;20026;-84
2022/07/06 05:01:58;;;;;;;11.37;5.20;;;;;;;11.14;88.88;102417.53;5116048;28;20023;-84
2022/07/06 05:04:24;;;;;;;11.60;5.43;;;;;;;11.26;88.38;102417.13;5118425;27;20283;-84
2022/07/06 05:06:50;;;;;;;9.80;5.00;;;;;;;11.36;87.02;102415.00;5118843;27;20078;-85
2022/07/06 05:09:15;;;;;;;7.25;4.93;;;;;;;11.52;87.01;102419.47;5119120;27;20034;-85
2022/07/06 05:11:41;;;;;;;8.27;4.60;;;;;;;11.67;87.07;102424.94;5119233;27;20476;-84
2022/07/06 05:14:07;;;;;;;7.05;5.13;;;;;;;11.82;86.71;102430.41;5137328;27;20030;-84
2022/07/06 05:16:33;;;;;;;6.93;4.20;;;;;;;11.97;85.78;102431.28;5119180;27;20153;-84
2022/07/06 05:18:58;;;;;;;7.70;4.60;;;;;;;12.08;84.91;102427.28;5119176;27;20093;-85
2022/07/06 05:21:24;;;;;;;5.60;4.50;;;;;;;12.18;84.22;102432.41;5118589;27;20024;-84
2022/07/06 05:23:50;;;;;;;9.65;4.18;;;;;;;12.33;84.36;102438.72;5119186;27;20419;-84
2022/07/06 05:26:15;;;;;;;6.77;3.87;;;;;;;12.48;83.76;102435.16;5118967;27;20023;-85
2022/07/06 05:28:40;;;;;;;7.13;4.47;;;;;;;12.61;83.79;102441.59;5119494;27;20039;-85
2022/07/06 05:31:06;;;;;;;10.03;3.80;;;;;;;12.76;82.86;102438.00;5137068;27;20023;-87
2022/07/06 05:33:31;;;;;;;6.72;3.95;;;;;;;12.93;82.68;102436.75;5119006;27;20451;-86
2022/07/06 05:35:56;;;;;;;4.93;3.67;;;;;;;13.13;81.62;102436.13;5119094;27;20042;-85
2022/07/06 05:38:22;;;;;;;8.90;3.80;;;;;;;13.25;80.52;102434.56;5118874;27;20036;-87
2022/07/06 05:40:47;;;;;;;5.83;3.40;;;;;;;13.41;79.96;102435.38;5084584;27;20023;-86
2022/07/06 05:43:13;;;;;;;9.38;3.38;;;;;;;13.46;78.70;102439.22;5101854;27;20030;-86
2022/07/06 05:45:38;;;;;;;5.53;3.20;;;;;;;13.55;78.77;102439.88;5084660;27;20024;-85
2022/07/06 05:50:47;;;;;;;6.18;3.33;;;;;;;13.79;77.86;102443.22;5106494;27;20391;-86
2022/07/06 05:53:13;;;;;;;5.10;3.47;;;;;;;13.93;78.10;102446.91;5084876;27;20027;-86
2022/07/06 05:55:38;;;;;;;4.33;3.00;;;;;;;13.97;77.08;102445.47;5118420;27;20031;-86
2022/07/06 05:58:04;;;;;;;3.63;2.90;;;;;;;14.12;77.17;102448.09;5101447;27;20038;-86
2022/07/06 06:00:29;;;;;;;8.63;3.30;;;;;;;14.20;77.28;102448.78;5102047;27;20034;-86
2022/07/06 06:02:55;;;;;;;8.37;2.93;;;;;;;14.35;77.23;102448.66;5101338;27;20059;-86
2022/07/06 06:05:21;;;;;;;8.35;3.22;;;;;;;14.42;75.60;102448.69;5118305;27;20106;-86
2022/07/06 06:07:48;;;;;;;5.38;3.35;;;;;;;14.46;75.71;102449.13;5136996;27;20072;-86
2022/07/06 06:10:15;;;;;;;4.77;3.13;;;;;;;14.50;75.62;102451.25;5117798;27;20028;-85
2022/07/06 06:12:41;;;;;;;5.43;2.90;;;;;;;14.54;74.86;102447.06;5118250;27;20042;-86
2022/07/06 06:15:08;;;;;;;3.47;2.58;;;;;;;14.55;74.47;102454.19;5117750;27;20035;-87
2022/07/06 06:17:35;;;;;;;6.88;2.88;;;;;;;14.62;74.70;102453.44;5117303;27;20027;-87
2022/07/06 06:20:08;;;;;;;5.95;2.50;;;;;;;14.63;74.42;102446.91;5135348;27;20023;-86
2022/07/06 06:22:50;;;;;;;3.60;2.50;;;;;;;14.62;74.08;102450.72;5117419;27;20042;-86
2022/07/06 06:25:19;;;;;;;3.40;2.00;;;;;;;14.64;73.87;102448.63;5117762;27;20045;-86
2022/07/06 06:27:45;;;;;;;4.45;2.13;;;;;;;14.70;74.37;102453.25;5117552;27;20055;-86
2022/07/06 06:30:14;;;;;;;3.42;1.90;;;;;;;14.68;74.15;102452.63;5117566;27;20382;-86
2022/07/06 06:32:40;;;;;;;3.50;1.70;;;;;;;14.69;73.36;102446.97;5117591;27;20110;-86
2022/07/06 06:35:06;;;;;;;7.07;2.30;;;;;;;14.73;73.52;102456.44;5117563;27;20463;-87
2022/07/06 06:37:32;;;;;;;2.80;1.70;;;;;;;14.75;73.38;102448.03;5135567;27;20113;-86
2022/07/06 06:39:58;;;;;;;3.10;1.75;;;;;;;14.74;73.70;102462.75;5100614;27;20066;-86
2022/07/06 06:42:23;;;;;;;4.13;1.70;;;;;;;14.73;73.49;102458.31;5100514;27;20110;-86
2022/07/06 06:44:49;;;;;;;4.75;1.92;;;;;;;14.76;74.04;102455.16;5117477;27;20027;-86
2022/07/06 06:47:14;;;;;;;6.67;2.10;;;;;;;14.78;73.52;102453.09;5135852;27;20155;-86
2022/07/06 06:49:39;;;;;;;4.73;1.80;;;;;;;14.79;73.79;102462.13;5116722;27;20054;-87
2022/07/06 06:52:07;;;;;;;4.17;2.00;;;;;;;14.78;73.50;102457.69;5082662;27;20434;-86
2022/07/06 06:54:33;;;;;;;4.03;2.40;;;;;;;14.76;74.22;102462.53;5116763;27;20069;-86
2022/07/06 06:56:58;;;;;;;7.17;2.20;;;;;;;14.73;74.30;102456.44;5116547;27;20015;-86
2022/07/06 06:59:24;;;;;;;3.47;2.00;;;;;;;14.75;74.39;102467.16;5100008;27;20031;-86
2022/07/06 07:01:49;;;;;;;8.53;2.10;;;;;;;14.73;73.34;102469.25;5116698;27;20580;-87
2022/07/06 07:04:15;;;;;;;5.03;2.00;;;;;;;14.77;73.95;102466.97;5117504;27;20451;-87
2022/07/06 07:06:40;;;;;;;4.60;1.90;;;;;;;14.78;72.95;102463.16;5099872;27;20554;-91
2022/07/06 07:09:08;;;;;;;3.42;1.75;;;;;;;14.88;72.88;102469.09;5135085;27;20515;-87
2022/07/06 07:11:34;;;;;;;2.58;1.15;;;;;;;14.97;72.61;102464.28;5116887;27;20031;-87
2022/07/06 07:14:00;;;;;;;2.25;1.05;;;;;;;15.05;70.76;102469.56;5116566;27;20041;-87
2022/07/06 07:16:28;;;;;;;3.07;0.90;;;;;;;15.09;68.23;102466.22;5116867;27;20019;-87
2022/07/06 07:18:54;;;;;;;3.08;0.90;;;;;;;15.21;69.13;102468.34;5135210;27;20031;-87
2022/07/06 07:21:19;;;;;;;5.97;0.70;;;;;;;15.30;67.35;102474.47;5116227;27;20103;-86
2022/07/06 07:23:45;;;;;;;1.33;0.80;;;;;;;15.34;67.67;102464.78;5117560;27;20359;-87
2022/07/06 07:26:11;;;;;;;2.20;0.70;;;;;;;15.44;65.73;102465.22;5116644;27;20026;-86
2022/07/06 07:28:36;;;;;;;1.88;0.70;;;;;;;15.54;64.87;102465.66;5116492;27;20378;-86
2022/07/06 07:31:02;;;;;;;1.90;0.80;;;;;;;15.60;66.31;102464.84;5116564;27;20035;-87
2022/07/06 07:33:27;;;;;;;1.80;0.70;;;;;;;15.70;63.22;102471.78;5116149;27;20023;-86
2022/07/06 07:35:53;;;;;;;1.40;0.63;;;;;;;15.72;63.55;102473.25;5117015;27;20068;-85
2022/07/06 07:38:18;;;;;;;1.60;0.80;;;;;;;15.80;62.36;102469.50;5082619;27;20039;-84
2022/07/06 07:40:43;;;;;;;0.80;0.53;;;;;;;15.91;60.84;102476.22;5134283;27;20474;-84
2022/07/06 07:43:09;;;;;;;2.47;0.70;;;;;;;16.05;58.28;102457.91;5099512;27;20026;-84
2022/07/06 07:45:34;;;;;;;2.10;0.60;;;;;;;16.11;57.74;102465.25;5099575;27;20056;-84
2022/07/06 07:48:00;;;;;;;3.10;0.70;;;;;;;16.19;57.33;102470.50;5099301;27;20023;-84
2022/07/06 07:50:26;;;;;;;0.60;0.40;;;;;;;16.20;56.59;102465.88;5115876;27;20035;-84
2022/07/06 07:52:52;;;;;;;1.88;0.55;;;;;;;16.35;55.49;102465.63;5116114;27;20036;-84
2022/07/06 07:55:17;;;;;;;1.63;0.70;;;;;;;16.41;57.13;102462.84;5113477;27;20068;-83
2022/07/06 07:57:43;;;;;;;1.73;0.63;;;;;;;16.51;56.07;102461.59;5131778;27;20035;-83
2022/07/06 08:00:09;;;;;;;2.40;0.60;;;;;;;16.60;55.25;102472.06;5111858;27;20023;-82
2022/07/06 08:02:34;;;;;;;2.23;0.60;;;;;;;16.55;55.28;102463.66;5098877;28;20276;-81
2022/07/06 08:05:00;;;;;;;2.03;0.60;;;;;;;16.58;54.07;102456.91;5134650;27;20023;-81
2022/07/06 08:07:25;;;;;;;1.17;0.60;;;;;;;16.65;55.93;102452.22;5097801;28;20047;-82
2022/07/06 08:09:50;;;;;;;1.50;0.60;;;;;;;16.74;54.56;102444.59;5115232;28;20458;-82
2022/07/06 08:12:16;;;;;;;2.23;0.60;;;;;;;16.75;54.21;102449.88;5098611;28;20038;-82
2022/07/06 08:14:41;;;;;;;1.00;0.50;;;;;;;16.81;55.02;102456.38;5099007;28;20113;-83
2022/07/06 08:17:06;;;;;;;3.47;0.53;;;;;;;16.82;55.07;102449.84;5135117;28;20058;-83
2022/07/06 08:19:32;;;;;;;3.15;0.63;;;;;;;16.86;54.46;102447.50;5132345;28;20035;-82
2022/07/06 08:21:57;;;;;;;1.50;0.57;;;;;;;16.90;54.86;102451.53;5115916;28;20027;-82
2022/07/06 08:24:23;;;;;;;3.67;0.50;;;;;;;16.98;54.52;102459.50;5134152;28;20092;-80
2022/07/06 08:26:49;;;;;;;1.90;0.60;;;;;;;17.05;55.15;102454.84;5099264;28;20443;-83
2022/07/06 08:29:17;;;;;;;2.27;0.70;;;;;;;17.19;55.41;102455.59;5114662;28;20121;-83
2022/07/06 08:31:43;;;;;;;1.15;0.70;;;;;;;17.39;54.97;102457.34;5115449;28;20027;-83
2022/07/06 08:34:09;;;;;;;1.63;0.70;;;;;;;17.62;54.28;102445.78;5133401;28;20034;-83
2022/07/06 08:36:34;;;;;;;1.92;0.57;;;;;;;17.93;53.19;102447.63;5082095;28;20417;-83
2022/07/06 08:39:00;;;;;;;1.43;0.60;;;;;;;18.26;52.53;102442.88;5117411;27;20027;-84
2022/07/06 08:41:29;;;;;;;2.03;0.60;;;;;;;18.40;51.92;102445.22;5119842;27;20011;-83
2022/07/06 08:43:54;;;;;;;3.23;0.60;;;;;;;18.49;52.23;102447.69;5119983;27;20264;-83
2022/07/06 08:46:21;;;;;;;4.72;0.75;;;;;;;18.67;51.16;102439.41;5120224;27;20046;-85
2022/07/06 08:48:48;;;;;;;2.57;1.00;;;;;;;18.95;50.83;102440.75;5101634;27;20117;-83
2022/07/06 08:51:14;;;;;;;4.72;0.85;;;;;;;19.15;49.36;102434.97;5134722;27;20035;-83
2022/07/06 08:53:45;;;;;;;2.45;0.60;;;;;;;19.35;50.15;102433.81;5086404;27;20023;-83
2022/07/06 08:56:10;;;;;;;4.15;0.70;;;;;;;19.49;49.91;102431.69;5119214;27;20458;-83
2022/07/06 08:58:36;;;;;;;3.13;0.90;;;;;;;19.43;48.41;102426.06;5137704;27;20038;-83
2022/07/06 09:01:02;;;;;;;2.33;0.60;;;;;;;19.44;48.77;102427.75;5135522;27;20019;-83
2022/07/06 09:03:28;;;;;;;2.23;0.70;;;;;;;19.37;48.62;102432.53;5101911;27;20023;-83
2022/07/06 09:05:59;;;;;;;2.75;0.90;;;;;;;19.53;49.23;102430.16;5137442;27;20027;-83
2022/07/06 09:08:27;;;;;;;2.13;0.90;;;;;;;19.62;48.31;102424.06;5119528;27;20063;-83
2022/07/06 09:10:52;;;;;;;1.65;0.90;;;;;;;19.92;48.95;102428.66;5118043;27;20019;-83
2022/07/06 09:13:18;;;;;;;1.93;0.70;;;;;;;20.19;48.83;102425.38;5096629;28;20495;-83
2022/07/06 09:15:43;;;;;;;1.77;0.70;;;;;;;20.44;47.57;102435.28;5081650;28;20118;-84
2022/07/06 09:18:09;;;;;;;2.28;1.02;;;;;;;20.68;46.05;102425.91;5081851;28;20429;-84
2022/07/06 09:20:35;;;;;;;1.17;0.70;;;;;;;21.01;45.24;102426.25;5098193;28;20023;-84
2022/07/06 09:23:03;;;;;;;4.10;0.73;;;;;;;21.28;44.30;102423.69;5081655;28;20036;-83
2022/07/06 09:25:32;;;;;;;1.77;0.70;;;;;;;21.53;43.83;102439.88;5131293;27;20035;-85
2022/07/06 09:28:17;;;;;;;1.95;0.73;;;;;;;21.64;43.08;102428.97;5106726;27;20479;-86
2022/07/06 09:30:43;;;;;;;3.55;0.70;;;;;;;21.50;42.13;102434.84;5118928;27;20027;-86
2022/07/06 09:33:09;;;;;;;2.38;0.80;;;;;;;21.36;41.86;102437.09;5114361;27;20372;-85
2022/07/06 09:35:38;;;;;;;2.73;0.80;;;;;;;21.35;42.32;102435.41;5118614;27;20038;-85
2022/07/06 09:38:12;;;;;;;3.80;0.80;;;;;;;21.46;43.12;102439.16;5137031;27;20019;-85
2022/07/06 09:40:39;;;;;;;3.28;1.10;;;;;;;21.72;42.16;102436.84;5118708;27;20030;-85
2022/07/06 09:43:15;;;;;;;3.10;0.70;;;;;;;21.73;41.28;102428.31;5118235;27;20070;-85
2022/07/06 09:45:46;;;;;;;3.80;0.90;;;;;;;21.91;40.66;102434.66;5118404;27;20034;-85
2022/07/06 09:48:15;;;;;;;2.65;0.80;;;;;;;22.13;40.56;102431.09;5118728;27;20019;-85
2022/07/06 09:50:46;;;;;;;1.75;0.80;;;;;;;22.38;40.90;102437.00;5117218;27;20023;-86
2022/07/06 09:53:12;;;;;;;1.48;0.80;;;;;;;22.42;39.86;102437.31;5101415;27;20467;-85
2022/07/06 09:55:38;;;;;;;3.43;0.80;;;;;;;22.46;38.00;102443.19;5118314;27;20026;-85
2022/07/06 09:58:04;;;;;;;1.80;0.80;;;;;;;22.45;37.45;102438.72;5112199;28;20505;-85
2022/07/06 10:00:30;;;;;;;3.07;1.00;;;;;;;22.45;37.54;102435.97;5097893;28;20080;-85
2022/07/06 10:02:56;;;;;;;2.50;0.80;;;;;;;22.46;38.46;102438.47;5097152;27;20297;-85
2022/07/06 10:05:31;;;;;;;2.00;0.70;;;;;;;22.45;38.57;102441.50;5117939;27;20042;-85
2022/07/06 10:07:59;;;;;;;2.38;0.80;;;;;;;22.70;37.60;102438.19;5135896;27;20047;-85
2022/07/06 10:10:29;;;;;;;1.57;0.70;;;;;;;23.25;38.23;102433.53;5118047;27;20027;-85
2022/07/06 10:12:59;;;;;;;2.00;1.00;;;;;;;23.54;37.40;102441.53;5117726;27;20023;-85
2022/07/06 10:15:26;;;;;;;1.08;0.70;;;;;;;23.11;37.72;102441.44;5117913;27;20024;-85
2022/07/06 10:17:53;;;;;;;2.70;0.80;;;;;;;23.41;38.12;102451.13;5118154;27;20390;-85
2022/07/06 10:20:19;;;;;;;2.72;0.80;;;;;;;23.54;35.98;102447.09;5117405;27;20042;-85
2022/07/06 10:22:49;;;;;;;4.20;0.60;;;;;;;23.26;36.39;102437.97;5117932;27;20054;-85
2022/07/06 10:25:19;;;;;;;1.20;0.70;;;;;;;23.29;37.49;102445.75;5117734;27;20106;-85
2022/07/06 10:27:48;;;;;;;2.15;1.00;;;;;;;23.33;36.69;102448.84;5100904;27;20062;-85
2022/07/06 10:30:15;;;;;;;1.08;0.77;;;;;;;23.37;36.82;102442.53;5117999;27;20050;-85
2022/07/06 10:32:43;;;;;;;2.58;1.02;;;;;;;23.38;35.23;102441.41;5100838;27;20055;-85
2022/07/06 10:35:09;;;;;;;2.93;1.17;;;;;;;23.40;36.31;102441.13;5100965;27;20084;-85
2022/07/06 10:37:34;;;;;;;1.83;1.00;;;;;;;23.72;36.46;102437.53;5100689;27;20028;-85
2022/07/06 10:42:51;;;;;;;5.23;1.10;;;;;;;24.57;35.11;102434.69;5135980;27;20462;-85
2022/07/06 10:45:45;;;;;;;1.98;0.70;;;;;;;25.12;35.52;102440.66;5100196;27;20038;-86
2022/07/06 10:48:11;;;;;;;3.10;0.80;;;;;;;25.30;32.93;102442.09;5111937;27;20551;-86
2022/07/06 10:50:46;;;;;;;5.03;0.80;;;;;;;25.55;32.80;102440.44;5114217;27;20043;-85
2022/07/06 10:53:22;;;;;;;1.88;0.75;;;;;;;25.68;31.93;102437.09;5113629;27;20782;-87
2022/07/06 10:55:51;;;;;;;2.85;1.02;;;;;;;25.50;31.64;102432.13;5107809;27;20132;-86
2022/07/06 10:58:39;;;;;;;2.55;0.80;;;;;;;25.48;33.41;102432.41;5099611;27;20035;-85
2022/07/06 11:01:05;;;;;;;2.50;0.90;;;;;;;25.36;31.03;102426.25;5097446;27;20039;-85
2022/07/06 11:03:42;;;;;;;2.45;0.85;;;;;;;25.51;32.26;102430.97;5100128;27;20065;-87
2022/07/06 11:06:09;;;;;;;3.63;1.00;;;;;;;25.72;31.53;102431.81;5112930;27;20061;-86
2022/07/06 11:08:50;;;;;;;2.95;1.00;;;;;;;25.83;32.42;102429.84;5112886;28;20104;-85
2022/07/06 11:11:26;;;;;;;2.50;0.90;;;;;;;25.86;30.64;102430.09;5114634;28;20483;-85
2022/07/06 11:14:08;;;;;;;4.53;0.90;;;;;;;26.04;30.66;102423.16;5097017;28;20027;-85
2022/07/06 11:17:04;;;;;;;1.30;1.00;;;;;;;26.57;31.82;102427.38;5096867;28;20122;-85
2022/07/06 11:19:29;;;;;;;2.15;0.90;;;;;;;26.09;30.28;102427.88;5096633;28;20055;-86
2022/07/06 11:21:58;;;;;;;2.70;0.90;;;;;;;26.18;30.28;102422.56;5079024;28;20490;-85
2022/07/06 11:24:30;;;;;;;3.63;1.02;;;;;;;26.27;30.97;102421.66;5096735;28;20479;-86
2022/07/06 11:26:57;;;;;;;1.35;0.80;;;;;;;27.22;29.14;102412.50;5096372;28;20032;-86
2022/07/06 11:29:26;;;;;;;1.65;0.90;;;;;;;29.24;26.81;102420.19;5114592;28;20043;-86
2022/07/06 11:31:54;;;;;;;2.45;0.93;;;;;;;31.51;23.11;102414.25;5096374;28;20110;-86
2022/07/06 11:34:25;;;;;;;2.17;1.03;;;;;;;33.14;21.91;102412.53;5096155;28;20122;-86